Time;durP1;ratioP1;P1;durP2;ratioP2;P2;SDS_P1;SDS_P2;PMS_P1;PMS_P2;Temp;Humidity;BMP_temperature;BMP_pressure;BME280_temperature;BME280_humidity;BME280_pressure;Samples;Min_cycle;Max_cycle;Signal;HPM_P1;HPM_P2
2022/08/15 00:00:50;;;;;;;11.07;9.95;;;;;;;19.19;89.35;99026.28;4982623;28;20050;-80
2022/08/15 00:03:27;;;;;;;10.73;9.63;;;;;;;19.13;90.78;99020.69;4974313;28;20046;-80
2022/08/15 00:05:56;;;;;;;10.63;9.48;;;;;;;19.15;89.78;99020.94;4990735;28;20502;-80
2022/08/15 00:08:22;;;;;;;11.05;9.90;;;;;;;19.01;92.66;99019.22;4991548;28;20053;-80
2022/08/15 00:10:48;;;;;;;11.25;9.77;;;;;;;18.90;93.42;99036.16;4988104;28;20039;-80
2022/08/15 00:13:28;;;;;;;10.40;9.40;;;;;;;18.93;92.51;99040.72;4990216;28;20379;-80
2022/08/15 00:15:54;;;;;;;10.63;9.52;;;;;;;18.89;93.48;99023.38;4990105;28;20738;-80
2022/08/15 00:18:22;;;;;;;10.85;9.75;;;;;;;18.86;93.62;99024.44;4985780;28;20049;-80
2022/08/15 00:20:48;;;;;;;11.45;9.73;;;;;;;18.79;95.97;99019.34;4967200;28;20041;-80
2022/08/15 00:23:15;;;;;;;10.90;9.57;;;;;;;18.73;96.62;99027.03;4989433;28;20128;-80
2022/08/15 00:25:46;;;;;;;10.70;9.60;;;;;;;18.71;97.25;99030.38;4998355;28;20089;-80
2022/08/15 00:28:11;;;;;;;12.88;9.93;;;;;;;18.67;97.25;99029.13;4973326;28;20070;-80
2022/08/15 00:30:39;;;;;;;10.45;9.43;;;;;;;18.64;96.72;99031.66;4988019;28;20498;-80
2022/08/15 00:33:05;;;;;;;11.25;10.00;;;;;;;18.66;95.93;99033.19;4993227;28;20049;-80
2022/08/15 00:35:37;;;;;;;10.80;9.75;;;;;;;18.64;95.88;99036.53;4989611;28;20060;-80
2022/08/15 00:38:23;;;;;;;10.45;9.43;;;;;;;18.62;95.47;99027.84;4979198;28;20051;-80
2022/08/15 00:43:58;;;;;;;12.00;9.95;;;;;;;18.59;96.00;99029.66;4909765;29;20104;-80
2022/08/15 00:46:25;;;;;;;12.63;10.55;;;;;;;18.50;96.62;99018.69;4909600;29;20040;-80
2022/08/15 00:48:52;;;;;;;11.50;10.30;;;;;;;18.53;97.79;99020.47;4947899;28;20042;-80
2022/08/15 00:51:30;;;;;;;11.40;9.85;;;;;;;18.49;97.97;99025.56;4970518;28;20524;-80
2022/08/15 00:54:08;;;;;;;11.10;9.88;;;;;;;18.45;98.53;99030.69;4976712;28;20764;-80
2022/08/15 00:56:56;;;;;;;11.25;10.15;;;;;;;18.34;100.00;99013.09;4993018;28;20097;-80
2022/08/15 00:59:26;;;;;;;10.68;9.65;;;;;;;18.30;99.01;99019.00;4958199;28;20049;-80
2022/08/15 01:01:52;;;;;;;11.18;10.05;;;;;;;18.34;98.50;99019.50;4987374;28;20046;-80
2022/08/15 01:04:19;;;;;;;11.23;9.88;;;;;;;18.31;99.20;99023.34;4975462;28;20579;-80
2022/08/15 01:06:47;;;;;;;11.43;10.32;;;;;;;18.27;99.41;99025.63;4990354;28;20128;-80
2022/08/15 01:09:14;;;;;;;13.13;9.75;;;;;;;18.28;99.18;99021.53;4990316;28;20057;-80
2022/08/15 01:11:54;;;;;;;11.65;10.48;;;;;;;18.24;98.45;99015.41;4976896;28;20038;-80
2022/08/15 01:14:22;;;;;;;12.55;10.55;;;;;;;18.28;98.76;99015.91;4955400;28;20042;-80
2022/08/15 01:16:48;;;;;;;11.45;10.35;;;;;;;18.38;98.37;99022.78;4986219;28;20042;-80
2022/08/15 01:19:21;;;;;;;11.57;10.48;;;;;;;18.40;98.57;99023.03;4975211;28;20513;-80
2022/08/15 01:21:54;;;;;;;11.15;10.05;;;;;;;18.34;100.00;99022.31;5000984;28;20120;-80
2022/08/15 01:24:43;;;;;;;12.43;11.23;;;;;;;18.36;100.00;99027.41;4991770;28;20039;-80
2022/08/15 01:27:10;;;;;;;11.40;10.20;;;;;;;18.27;100.00;99020.03;4973120;28;20066;-80
2022/08/15 01:29:36;;;;;;;10.98;9.98;;;;;;;18.15;100.00;99018.53;4991222;28;20058;-80
2022/08/15 01:32:02;;;;;;;11.23;10.13;;;;;;;18.10;99.98;99016.47;4989890;28;20463;-80
2022/08/15 01:34:27;;;;;;;12.20;10.05;;;;;;;18.06;100.00;99025.16;4984193;28;20081;-80
2022/08/15 01:36:54;;;;;;;11.50;10.30;;;;;;;18.05;99.93;99028.47;4991117;28;20083;-80
2022/08/15 01:39:33;;;;;;;11.57;10.38;;;;;;;18.07;99.51;99028.75;4983196;28;20422;-80
2022/08/15 01:42:21;;;;;;;14.88;10.30;;;;;;;18.08;100.00;99024.63;4991103;28;20060;-80
2022/08/15 01:45:08;;;;;;;10.77;9.70;;;;;;;18.10;99.86;99022.09;4988309;28;20081;-79
2022/08/15 01:47:57;;;;;;;11.13;10.02;;;;;;;18.10;98.74;99019.28;4978500;28;20054;-80
2022/08/15 01:50:28;;;;;;;12.52;10.55;;;;;;;18.12;98.88;99013.91;4986960;28;20042;-80
2022/08/15 01:53:10;;;;;;;11.43;9.73;;;;;;;18.16;99.33;99006.75;4954913;28;20457;-79
2022/08/15 01:55:52;;;;;;;12.23;10.95;;;;;;;18.20;100.00;99014.19;4978374;28;20050;-79
2022/08/15 01:58:19;;;;;;;14.43;11.75;;;;;;;17.95;100.00;99004.78;4985847;28;20468;-79
2022/08/15 02:00:51;;;;;;;11.18;10.07;;;;;;;17.99;100.00;99011.66;4973817;28;20048;-79
2022/08/15 02:03:18;;;;;;;14.32;10.57;;;;;;;18.02;100.00;99004.25;4964152;28;20034;-80
2022/08/15 02:05:43;;;;;;;11.23;10.13;;;;;;;18.05;100.00;99011.63;4990265;28;20173;-80
2022/08/15 02:08:09;;;;;;;11.23;10.15;;;;;;;17.98;100.00;99006.56;4991061;28;20046;-80
2022/08/15 02:10:35;;;;;;;11.43;10.32;;;;;;;17.91;100.00;99005.03;4942956;28;20409;-80
2022/08/15 02:13:01;;;;;;;11.13;10.00;;;;;;;17.75;100.00;99007.88;4990660;28;20450;-80
2022/08/15 02:15:33;;;;;;;12.48;10.80;;;;;;;17.80;100.00;98993.03;4992768;28;20046;-79
2022/08/15 02:17:59;;;;;;;12.02;10.80;;;;;;;17.77;100.00;98994.06;4981986;28;20134;-79
2022/08/15 02:23:04;;;;;;;12.80;11.60;;;;;;;17.79;100.00;98994.34;5007052;28;20089;-83
2022/08/15 02:25:30;;;;;;;11.45;10.07;;;;;;;17.85;100.00;98995.09;5003844;28;20041;-82
2022/08/15 02:27:56;;;;;;;11.68;10.48;;;;;;;17.85;100.00;98992.28;5006132;28;20047;-82
2022/08/15 02:30:25;;;;;;;10.82;9.73;;;;;;;17.85;100.00;98998.66;5022290;28;20042;-82
2022/08/15 02:32:50;;;;;;;11.52;10.32;;;;;;;17.87;100.00;98992.56;4992593;28;20136;-82
2022/08/15 02:35:17;;;;;;;12.00;10.80;;;;;;;17.84;100.00;98999.94;5014293;28;20120;-82
2022/08/15 02:37:44;;;;;;;12.15;10.80;;;;;;;17.87;100.00;98998.16;4995761;28;20053;-81
2022/08/15 02:40:13;;;;;;;11.27;10.18;;;;;;;17.85;100.00;98997.91;5019645;22;20058;-82
2022/08/15 02:42:39;;;;;;;11.68;10.48;;;;;;;17.71;100.00;98999.72;4965670;28;20467;-83
2022/08/15 02:45:10;;;;;;;12.10;10.73;;;;;;;17.62;100.00;99002.75;4989208;28;20125;-82
2022/08/15 02:47:41;;;;;;;11.45;9.82;;;;;;;17.49;100.00;99008.84;4989151;28;20034;-82
2022/08/15 02:50:08;;;;;;;12.50;10.57;;;;;;;17.46;100.00;98990.25;4954322;28;20530;-82
2022/08/15 02:52:40;;;;;;;12.38;11.18;;;;;;;17.51;100.00;98994.31;4968581;28;20069;-82
2022/08/15 02:55:08;;;;;;;11.93;10.73;;;;;;;17.54;100.00;98996.88;4973694;28;20101;-82
2022/08/15 02:57:34;;;;;;;12.27;11.07;;;;;;;17.59;100.00;98998.19;4974578;28;20537;-82
2022/08/15 03:00:02;;;;;;;12.15;10.95;;;;;;;17.57;100.00;98998.69;4989961;28;20510;-82
2022/08/15 03:02:48;;;;;;;12.25;11.05;;;;;;;17.63;100.00;98991.03;4991219;28;20069;-83
2022/08/15 03:05:14;;;;;;;12.40;11.20;;;;;;;17.63;100.00;98990.28;4973772;28;20405;-83
2022/08/15 03:07:44;;;;;;;11.88;10.68;;;;;;;17.65;100.00;98993.31;4990790;28;20121;-82
2022/08/15 03:10:10;;;;;;;14.00;10.70;;;;;;;17.61;100.00;98984.41;4972827;28;20043;-82
2022/08/15 03:13:11;;;;;;;12.30;11.10;;;;;;;17.66;100.00;98984.41;4974373;28;20078;-82
2022/08/15 03:15:47;;;;;;;12.18;11.00;;;;;;;17.65;100.00;98982.88;4961961;28;20050;-82
2022/08/15 03:18:14;;;;;;;12.63;11.05;;;;;;;17.65;100.00;98982.88;4971278;28;20053;-82
2022/08/15 03:20:44;;;;;;;12.23;11.02;;;;;;;17.67;100.00;98991.53;4973813;28;20038;-82
2022/08/15 03:23:11;;;;;;;11.88;10.68;;;;;;;17.67;100.00;98991.53;4972477;28;20046;-82
2022/08/15 03:25:42;;;;;;;12.35;11.23;;;;;;;17.63;100.00;98996.63;4973608;28;20061;-82
2022/08/15 03:28:09;;;;;;;13.10;11.80;;;;;;;17.54;100.00;98991.28;4991052;28;20085;-82
2022/08/15 03:30:36;;;;;;;14.30;12.80;;;;;;;17.55;100.00;98984.38;4991030;28;20036;-82
2022/08/15 03:33:04;;;;;;;14.20;12.73;;;;;;;17.52;100.00;98990.22;4974098;28;20505;-82
2022/08/15 03:35:39;;;;;;;13.90;12.55;;;;;;;17.55;100.00;98983.63;4962573;28;20050;-83
2022/08/15 03:38:06;;;;;;;13.23;12.02;;;;;;;17.52;100.00;98974.19;4972685;28;20038;-82
2022/08/15 03:40:33;;;;;;;14.02;12.63;;;;;;;17.58;100.00;98977.00;4965727;28;20100;-82
2022/08/15 03:43:02;;;;;;;13.13;11.82;;;;;;;17.60;100.00;98971.66;4992772;28;20037;-82
2022/08/15 03:45:28;;;;;;;13.48;12.10;;;;;;;17.55;100.00;98961.94;4992010;28;20078;-83
2022/08/15 03:47:54;;;;;;;13.20;11.60;;;;;;;17.59;100.00;98972.94;4990845;28;20073;-82
2022/08/15 03:50:21;;;;;;;15.27;13.45;;;;;;;17.62;100.00;98978.28;4990329;28;20470;-82
2022/08/15 03:53:13;;;;;;;19.25;13.50;;;;;;;17.63;100.00;98974.19;4975993;28;20037;-81
2022/08/15 03:55:41;;;;;;;15.35;12.10;;;;;;;17.67;100.00;98969.09;4970217;28;20034;-81
2022/08/15 03:58:08;;;;;;;13.98;12.50;;;;;;;17.73;100.00;98965.53;4991149;28;20111;-81
2022/08/15 04:00:43;;;;;;;12.45;11.10;;;;;;;17.73;100.00;98959.91;4975673;28;20542;-81
2022/08/15 04:03:16;;;;;;;12.60;11.10;;;;;;;17.78;100.00;98967.56;4993257;28;20046;-81
2022/08/15 04:05:44;;;;;;;13.10;11.80;;;;;;;17.76;100.00;98958.88;4992268;28;20041;-81
2022/08/15 04:08:14;;;;;;;12.10;10.88;;;;;;;17.70;100.00;98956.88;4967175;28;20520;-81
2022/08/15 04:10:39;;;;;;;14.13;11.18;;;;;;;17.74;100.00;98955.84;5007550;28;20029;-82
2022/08/15 04:13:10;;;;;;;12.32;11.13;;;;;;;17.77;100.00;98960.41;5011100;28;20156;-82
2022/08/15 04:15:37;;;;;;;12.40;11.20;;;;;;;17.77;100.00;98960.41;4991083;28;20038;-81
2022/08/15 04:18:04;;;;;;;14.40;11.27;;;;;;;17.77;100.00;98955.56;5010057;28;20132;-82
2022/08/15 04:20:30;;;;;;;13.75;11.38;;;;;;;17.81;100.00;98963.72;4992834;28;20080;-83
2022/08/15 04:22:56;;;;;;;13.30;12.00;;;;;;;17.83;100.00;98969.59;4968612;28;20034;-82
2022/08/15 04:25:34;;;;;;;13.73;12.32;;;;;;;17.85;100.00;98973.41;5010340;28;20034;-82
2022/08/15 04:28:03;;;;;;;13.40;12.00;;;;;;;17.85;100.00;98967.03;4983968;28;20054;-82
2022/08/15 04:30:32;;;;;;;14.25;12.75;;;;;;;17.85;100.00;98958.63;4980313;28;20122;-82
2022/08/15 04:33:14;;;;;;;15.60;12.48;;;;;;;17.91;100.00;98962.19;4989624;28;20034;-82
2022/08/15 04:35:46;;;;;;;13.20;11.90;;;;;;;17.93;100.00;98968.03;4993014;28;20140;-82
2022/08/15 04:38:12;;;;;;;13.98;12.57;;;;;;;17.96;100.00;98964.97;4992659;28;20057;-81
2022/08/15 04:40:39;;;;;;;13.93;12.43;;;;;;;17.95;100.00;98957.84;4986798;28;20529;-80
2022/08/15 04:43:05;;;;;;;14.63;13.02;;;;;;;18.03;100.00;98963.69;4977139;28;20038;-81
2022/08/15 04:45:32;;;;;;;13.90;12.52;;;;;;;18.09;100.00;98976.44;4986565;28;20402;-81
2022/08/15 04:48:02;;;;;;;12.75;11.45;;;;;;;18.13;100.00;98976.94;4987392;28;20049;-80
2022/08/15 04:50:30;;;;;;;12.63;11.32;;;;;;;18.22;100.00;98970.28;4964204;28;20117;-80
2022/08/15 04:53:02;;;;;;;13.18;11.80;;;;;;;18.28;100.00;98971.00;4983718;28;20036;-81
2022/08/15 04:55:28;;;;;;;13.13;11.77;;;;;;;18.37;100.00;98962.31;4974315;28;20077;-80
2022/08/15 04:57:55;;;;;;;13.50;12.18;;;;;;;18.46;100.00;98959.22;4972445;28;20046;-83
2022/08/15 05:00:25;;;;;;;14.25;12.82;;;;;;;18.51;100.00;98950.00;4973208;28;20046;-83
2022/08/15 05:03:13;;;;;;;15.55;12.23;;;;;;;18.66;100.00;98949.69;4954057;28;20046;-82
2022/08/15 05:05:41;;;;;;;13.23;11.93;;;;;;;18.76;100.00;98958.59;4954412;28;20137;-82
2022/08/15 05:08:08;;;;;;;13.52;11.40;;;;;;;18.88;100.00;98958.03;4954201;28;20305;-82
2022/08/15 05:10:35;;;;;;;12.65;11.35;;;;;;;18.99;100.00;98949.50;4954030;28;20517;-82
2022/08/15 05:13:13;;;;;;;14.20;12.20;;;;;;;19.15;100.00;98952.72;4989690;28;20105;-82
2022/08/15 05:15:41;;;;;;;14.05;12.02;;;;;;;19.33;100.00;98955.63;4973447;28;20048;-82
2022/08/15 05:18:06;;;;;;;13.52;11.75;;;;;;;19.46;100.00;98969.88;4973249;28;20042;-82
2022/08/15 05:20:32;;;;;;;12.45;11.25;;;;;;;19.47;100.00;98965.78;4973376;28;20054;-82
2022/08/15 05:23:04;;;;;;;15.32;12.25;;;;;;;19.61;100.00;98968.75;4973544;28;20042;-83
2022/08/15 05:25:39;;;;;;;13.65;11.27;;;;;;;19.63;99.60;98966.94;4973348;28;20053;-83
2022/08/15 05:28:05;;;;;;;12.38;11.07;;;;;;;19.76;98.84;98974.75;4990751;28;20042;-83
2022/08/15 05:30:32;;;;;;;12.07;10.88;;;;;;;19.87;98.38;98974.66;4973227;28;20042;-83
2022/08/15 05:33:10;;;;;;;13.32;11.25;;;;;;;19.98;97.40;98963.28;4973498;28;20046;-83
2022/08/15 05:35:41;;;;;;;13.32;11.93;;;;;;;20.09;96.17;98974.44;4973208;28;20070;-83
2022/08/15 05:38:12;;;;;;;13.02;11.68;;;;;;;20.15;95.65;98974.34;4990756;28;20065;-83
2022/08/15 05:40:46;;;;;;;12.05;10.85;;;;;;;20.09;95.84;98980.06;4994902;28;20054;-82
2022/08/15 05:43:21;;;;;;;13.43;12.07;;;;;;;20.11;96.12;98971.84;4996250;28;20046;-82
2022/08/15 05:46:09;;;;;;;14.38;11.80;;;;;;;20.32;95.55;98983.41;4996196;28;20458;-82
2022/08/15 05:48:37;;;;;;;13.15;11.73;;;;;;;20.53;92.85;98975.25;5013383;28;20037;-82
2022/08/15 05:51:17;;;;;;;12.57;11.35;;;;;;;20.60;92.65;98966.19;4980026;28;20453;-82
2022/08/15 05:54:09;;;;;;;14.48;11.27;;;;;;;20.80;92.14;98986.16;4979925;28;20037;-82
2022/08/15 05:57:01;;;;;;;12.88;11.52;;;;;;;21.04;91.16;98976.84;4995898;28;20524;-83
2022/08/15 05:59:38;;;;;;;12.60;11.40;;;;;;;21.24;89.72;98984.78;4995543;28;20053;-83
2022/08/15 06:02:13;;;;;;;13.20;11.77;;;;;;;21.15;89.88;98978.78;4979658;28;20045;-84
2022/08/15 06:04:45;;;;;;;12.13;10.93;;;;;;;21.21;90.22;98991.50;4995870;28;20137;-83
2022/08/15 06:07:14;;;;;;;12.23;11.13;;;;;;;21.33;89.26;98984.41;4992726;28;20081;-83
2022/08/15 06:09:44;;;;;;;13.20;10.77;;;;;;;21.64;88.40;98982.09;4977466;28;20037;-83
2022/08/15 06:12:42;;;;;;;12.68;11.27;;;;;;;22.06;86.46;98989.63;4994722;28;20051;-83
2022/08/15 06:15:14;;;;;;;13.10;11.90;;;;;;;22.14;86.01;98987.66;4977931;28;20125;-83
2022/08/15 06:17:50;;;;;;;11.60;10.40;;;;;;;22.21;85.50;98989.06;4978705;28;20045;-83
2022/08/15 06:20:20;;;;;;;12.50;11.13;;;;;;;22.40;84.54;98986.16;4993695;28;20609;-83
2022/08/15 06:23:13;;;;;;;11.73;10.55;;;;;;;22.58;84.14;98993.75;5009384;28;20030;-82
2022/08/15 06:25:49;;;;;;;12.13;10.80;;;;;;;22.73;84.29;98983.41;5010246;28;20045;-82
2022/08/15 06:28:34;;;;;;;11.63;10.43;;;;;;;22.89;83.66;98981.53;5018458;28;20034;-80
2022/08/15 06:31:18;;;;;;;12.88;10.75;;;;;;;23.13;82.69;98989.75;4993628;28;20044;-82
2022/08/15 06:34:07;;;;;;;13.10;10.35;;;;;;;23.47;81.23;98992.59;4977679;28;20038;-83
2022/08/15 06:36:48;;;;;;;12.00;10.35;;;;;;;23.72;79.32;98995.84;5009046;28;20481;-82
2022/08/15 06:39:53;;;;;;;11.10;10.10;;;;;;;23.98;78.09;98990.00;4978363;28;20517;-82
2022/08/15 06:42:28;;;;;;;11.18;10.15;;;;;;;23.87;79.00;98995.19;4993358;28;20053;-82
2022/08/15 06:44:59;;;;;;;12.50;10.80;;;;;;;23.95;80.92;98996.03;4979012;28;20045;-83
2022/08/15 06:47:28;;;;;;;11.20;10.10;;;;;;;24.10;79.92;98991.22;4987184;28;20457;-83
2022/08/15 06:49:59;;;;;;;11.05;9.95;;;;;;;24.25;78.47;98995.53;4994568;28;20034;-83
2022/08/15 06:52:25;;;;;;;12.52;10.63;;;;;;;24.15;79.08;98987.53;4968417;28;20133;-83
2022/08/15 06:54:52;;;;;;;11.07;9.98;;;;;;;24.30;78.17;98991.78;4994812;28;20091;-82
2022/08/15 06:57:31;;;;;;;10.82;9.82;;;;;;;24.45;78.38;98992.63;4979120;28;20045;-82
2022/08/15 07:00:23;;;;;;;10.98;9.98;;;;;;;24.60;76.14;98991.94;4994710;28;20073;-82
2022/08/15 07:03:00;;;;;;;11.35;10.25;;;;;;;24.62;74.58;99000.66;4959958;28;20047;-84
2022/08/15 07:05:28;;;;;;;10.60;9.60;;;;;;;24.71;73.41;99002.97;4992664;28;20073;-82
2022/08/15 07:08:07;;;;;;;13.32;9.73;;;;;;;24.99;72.70;99000.09;4991425;28;20042;-82
2022/08/15 07:10:42;;;;;;;11.25;9.48;;;;;;;25.24;72.49;98997.53;4975342;28;20044;-82
2022/08/15 07:13:16;;;;;;;10.50;9.43;;;;;;;25.44;70.79;99001.53;4997749;28;20463;-83
2022/08/15 07:16:11;;;;;;;10.38;9.38;;;;;;;25.22;69.48;98999.44;4998384;28;20096;-82
2022/08/15 07:18:42;;;;;;;10.25;9.32;;;;;;;25.48;69.21;98999.09;5013554;28;20508;-82
2022/08/15 07:21:22;;;;;;;;;;;;;;;25.76;68.25;99010.31;5001225;28;20493;-81
2022/08/15 07:24:05;;;;;;;9.88;8.95;;;;;;;25.97;66.25;98991.03;5030542;28;19923;-83
2022/08/15 07:26:46;;;;;;;9.30;8.40;;;;;;;26.11;64.78;98990.84;5013771;28;20128;-82
2022/08/15 07:29:28;;;;;;;10.02;9.00;;;;;;;26.29;64.21;98993.28;5013896;28;20133;-83
2022/08/15 07:32:18;;;;;;;9.85;8.85;;;;;;;26.25;64.60;99000.69;5011967;28;20057;-82
2022/08/15 07:34:58;;;;;;;9.57;8.77;;;;;;;26.43;63.54;99005.97;4994293;28;20046;-84
2022/08/15 07:37:32;;;;;;;11.68;9.38;;;;;;;26.30;64.78;99003.34;4994275;28;20555;-82
2022/08/15 07:40:06;;;;;;;9.90;8.95;;;;;;;26.57;64.15;99003.66;4993907;28;20103;-83
2022/08/15 07:42:41;;;;;;;10.35;9.35;;;;;;;26.92;62.35;99015.34;4977711;28;20502;-83
2022/08/15 07:45:20;;;;;;;9.50;8.60;;;;;;;27.10;62.20;99009.19;5010384;28;20437;-83
2022/08/15 07:47:57;;;;;;;9.30;8.40;;;;;;;27.29;62.04;99000.19;4977889;28;20576;-82
2022/08/15 07:50:31;;;;;;;10.35;9.23;;;;;;;27.04;62.55;99010.75;4977493;28;20038;-82
2022/08/15 07:53:08;;;;;;;10.82;9.52;;;;;;;26.93;62.75;99005.47;4977850;28;20467;-84
2022/08/15 07:55:34;;;;;;;9.85;8.95;;;;;;;27.01;62.55;99000.50;4977532;28;20041;-82
2022/08/15 07:58:04;;;;;;;10.63;8.90;;;;;;;26.98;62.24;98993.09;4993419;28;20045;-83
2022/08/15 08:00:34;;;;;;;10.75;9.65;;;;;;;26.88;63.24;99010.81;4993398;28;20588;-83
2022/08/15 08:03:04;;;;;;;10.07;9.07;;;;;;;26.52;64.57;99001.78;4977547;28;20088;-83
2022/08/15 08:05:42;;;;;;;11.82;9.13;;;;;;;26.28;65.83;98994.63;4993258;28;20579;-83
2022/08/15 08:08:08;;;;;;;10.20;9.13;;;;;;;25.89;65.64;99000.88;4977646;28;20069;-83
2022/08/15 08:10:59;;;;;;;10.15;9.25;;;;;;;26.01;66.88;98999.16;4993390;28;20050;-83
2022/08/15 08:13:35;;;;;;;11.38;9.95;;;;;;;26.09;66.47;99010.53;5029335;28;20095;-82
2022/08/15 08:16:27;;;;;;;13.25;9.80;;;;;;;26.18;66.53;99007.13;5029436;28;20084;-83
2022/08/15 08:19:00;;;;;;;10.80;9.70;;;;;;;26.36;66.42;99000.31;5030360;28;20391;-84
2022/08/15 08:21:36;;;;;;;12.68;10.10;;;;;;;26.33;66.36;99007.13;5030396;28;20042;-90
2022/08/15 08:24:13;;;;;;;11.65;10.30;;;;;;;26.57;65.77;99008.59;4996903;28;20033;-83
2022/08/15 08:26:50;;;;;;;10.90;9.80;;;;;;;26.95;64.19;99008.50;4996623;28;20076;-84
2022/08/15 08:29:28;;;;;;;11.13;10.02;;;;;;;26.98;64.11;99007.34;5030397;28;20045;-83
2022/08/15 08:32:06;;;;;;;10.63;9.57;;;;;;;27.13;64.06;99019.44;5009215;28;20430;-83
2022/08/15 08:34:39;;;;;;;10.95;9.95;;;;;;;27.55;63.00;99013.91;5009919;28;20034;-82
2022/08/15 08:37:23;;;;;;;10.38;9.38;;;;;;;28.10;62.25;99008.03;4975727;28;20092;-83
2022/08/15 08:43:27;;;;;;;11.10;8.98;;;;;;;28.65;57.70;99006.88;5010730;28;20456;-81
2022/08/15 08:46:23;;;;;;;10.18;9.07;;;;;;;28.85;58.89;99011.44;4992399;28;20057;-83
2022/08/15 08:49:39;;;;;;;8.60;7.63;;;;;;;29.18;55.00;99009.13;5010759;28;20049;-83
2022/08/15 08:52:19;;;;;;;8.75;7.82;;;;;;;29.12;56.06;99008.63;5000283;28;20095;-84
2022/08/15 08:55:01;;;;;;;8.65;7.10;;;;;;;28.96;53.58;99010.16;5010699;28;20060;-83
2022/08/15 08:57:46;;;;;;;8.93;6.83;;;;;;;28.71;54.02;99005.31;5009800;28;20045;-82
2022/08/15 09:00:14;;;;;;;7.07;6.43;;;;;;;28.40;53.41;99009.81;4990906;28;20528;-83
2022/08/15 09:02:49;;;;;;;6.95;6.35;;;;;;;28.56;52.54;99010.41;5008727;28;20058;-82
2022/08/15 09:05:18;;;;;;;6.78;6.07;;;;;;;28.68;52.00;99011.41;4992169;28;20050;-82
2022/08/15 09:07:48;;;;;;;5.93;5.32;;;;;;;28.81;48.49;99004.66;5009894;28;20045;-82
2022/08/15 09:10:23;;;;;;;6.30;5.70;;;;;;;28.83;47.43;98999.13;4992087;28;20053;-83
2022/08/15 09:15:35;;;;;;;7.13;6.22;;;;;;;28.49;50.55;99012.00;5032253;28;20041;-82
2022/08/15 09:18:08;;;;;;;8.30;6.82;;;;;;;28.54;51.20;99002.44;5033028;28;20340;-81
2022/08/15 09:20:37;;;;;;;7.53;6.68;;;;;;;28.53;52.07;98995.22;5015665;28;20060;-84
2022/08/15 09:23:06;;;;;;;8.13;6.63;;;;;;;28.66;52.37;99003.47;5033911;28;20076;-83
2022/08/15 09:25:33;;;;;;;7.82;7.03;;;;;;;28.72;51.96;98989.72;4999684;28;20041;-83
2022/08/15 09:28:08;;;;;;;8.07;6.85;;;;;;;28.82;52.36;98989.03;5016420;28;20045;-83
2022/08/15 09:30:34;;;;;;;9.88;7.25;;;;;;;28.87;51.36;98983.09;5008202;28;20050;-83
2022/08/15 09:33:12;;;;;;;8.63;6.47;;;;;;;29.42;49.83;98982.53;5014383;28;20088;-83
2022/08/15 09:35:46;;;;;;;7.90;6.80;;;;;;;29.64;49.99;98978.56;5012221;28;20103;-84
2022/08/15 09:38:18;;;;;;;7.65;6.38;;;;;;;29.56;47.80;98983.66;4995547;28;20056;-82
2022/08/15 09:41:00;;;;;;;7.40;6.45;;;;;;;29.58;47.54;98985.94;5009931;28;20433;-82
2022/08/15 09:43:27;;;;;;;6.63;5.93;;;;;;;29.55;46.31;98981.41;5010355;28;20121;-82
2022/08/15 09:46:25;;;;;;;7.65;5.47;;;;;;;29.70;45.52;98981.16;5012509;28;20410;-82
2022/08/15 09:49:04;;;;;;;6.53;5.82;;;;;;;29.37;45.26;98983.56;4993854;28;20425;-82
2022/08/15 09:51:57;;;;;;;6.93;5.72;;;;;;;29.46;45.81;98976.41;5013876;28;20100;-82
2022/08/15 09:54:24;;;;;;;6.72;5.43;;;;;;;29.83;43.80;98977.16;5013502;28;20053;-83
2022/08/15 09:57:11;;;;;;;6.00;5.45;;;;;;;30.20;43.75;98967.19;4996305;28;20042;-83
2022/08/15 09:59:37;;;;;;;7.97;4.95;;;;;;;30.46;41.76;98957.00;5013110;28;20057;-81
2022/08/15 10:02:21;;;;;;;6.72;5.45;;;;;;;30.62;40.44;98974.63;5012143;28;20042;-82
2022/08/15 10:04:50;;;;;;;7.03;5.65;;;;;;;30.60;41.71;98971.63;4995590;28;20068;-82
2022/08/15 10:07:16;;;;;;;7.38;6.13;;;;;;;30.67;43.01;98965.00;5013560;28;20050;-83
2022/08/15 10:09:43;;;;;;;6.07;5.53;;;;;;;30.68;42.25;98960.78;5013204;28;20183;-83
2022/08/15 10:12:09;;;;;;;6.63;5.32;;;;;;;31.18;41.96;98967.38;5008947;28;20025;-83
2022/08/15 10:14:39;;;;;;;5.80;5.20;;;;;;;31.36;40.76;98962.97;5032912;28;20106;-83
2022/08/15 10:17:27;;;;;;;5.45;4.95;;;;;;;31.65;38.50;98956.41;5032813;28;20079;-83
2022/08/15 10:19:57;;;;;;;4.90;4.50;;;;;;;31.80;37.59;98961.75;5033246;28;20505;-84
2022/08/15 10:22:22;;;;;;;6.45;4.60;;;;;;;31.89;35.35;98963.81;4998805;28;20102;-83
2022/08/15 10:25:16;;;;;;;5.75;4.28;;;;;;;31.96;33.48;98959.25;5031106;28;20509;-83
2022/08/15 10:28:13;;;;;;;4.72;3.92;;;;;;;31.95;33.61;98967.09;5032099;28;20051;-83
2022/08/15 10:31:08;;;;;;;5.47;3.90;;;;;;;31.97;32.80;98958.66;5023632;28;20049;-83
2022/08/15 10:33:35;;;;;;;4.82;3.90;;;;;;;31.84;32.32;98959.16;4994346;28;20061;-83
2022/08/15 10:36:10;;;;;;;5.47;3.67;;;;;;;32.07;32.39;98950.72;5012813;28;20030;-83
2022/08/15 10:38:36;;;;;;;5.15;3.95;;;;;;;31.77;31.58;98957.25;5012620;28;20558;-83
2022/08/15 10:41:25;;;;;;;5.53;4.07;;;;;;;31.93;31.69;98953.38;4993791;28;20099;-83
2022/08/15 10:44:12;;;;;;;4.80;3.72;;;;;;;31.35;31.64;98952.84;4994832;28;20449;-83
2022/08/15 10:46:59;;;;;;;6.22;3.90;;;;;;;31.31;32.01;98952.56;5011842;28;20120;-83
2022/08/15 10:49:38;;;;;;;4.20;3.60;;;;;;;31.50;30.94;98953.88;5010831;28;20124;-83
2022/08/15 10:52:18;;;;;;;4.05;3.60;;;;;;;31.69;31.76;98945.97;4978371;28;20065;-82
2022/08/15 10:54:54;;;;;;;5.18;3.90;;;;;;;31.97;32.35;98952.16;4994810;28;20132;-82
2022/08/15 10:57:21;;;;;;;4.97;3.72;;;;;;;31.77;33.07;98946.53;5012776;28;20049;-82
2022/08/15 10:59:50;;;;;;;4.55;4.03;;;;;;;31.94;32.20;98948.41;5012403;28;20041;-82
2022/08/15 11:02:32;;;;;;;4.72;3.90;;;;;;;32.20;31.26;98947.34;5012364;28;20030;-83
2022/08/15 11:05:01;;;;;;;4.20;3.80;;;;;;;32.60;29.49;98945.69;4978621;28;20050;-84
2022/08/15 11:07:30;;;;;;;4.95;3.92;;;;;;;32.53;29.48;98943.78;4994874;28;20056;-82
2022/08/15 11:09:58;;;;;;;4.38;3.97;;;;;;;32.25;30.85;98943.41;5012515;28;20085;-82
2022/08/15 11:12:27;;;;;;;4.15;3.72;;;;;;;32.05;31.57;98944.84;5027080;28;20044;-82
2022/08/15 11:15:04;;;;;;;6.63;4.22;;;;;;;31.71;32.62;98931.00;5014470;28;20049;-82
2022/08/15 11:17:33;;;;;;;6.65;4.22;;;;;;;31.91;32.20;98936.03;5031686;28;20046;-82
2022/08/15 11:20:05;;;;;;;4.75;4.07;;;;;;;32.22;30.64;98944.63;5014281;28;20041;-82
2022/08/15 11:22:37;;;;;;;5.78;4.70;;;;;;;31.85;33.01;98929.13;5014155;28;20405;-84
2022/08/15 11:25:19;;;;;;;7.70;4.97;;;;;;;31.89;33.57;98941.63;5014523;28;20056;-84
2022/08/15 11:28:01;;;;;;;4.85;4.35;;;;;;;31.99;33.69;98932.97;5031801;28;20068;-82
2022/08/15 11:30:28;;;;;;;5.95;4.35;;;;;;;32.37;31.91;98932.72;5026912;28;20050;-82
2022/08/15 11:32:54;;;;;;;6.22;5.13;;;;;;;32.56;32.55;98940.44;5011987;28;20045;-81
2022/08/15 11:35:29;;;;;;;5.20;4.28;;;;;;;32.66;32.94;98926.03;5012022;28;20046;-84
2022/08/15 11:37:57;;;;;;;7.05;4.50;;;;;;;32.34;32.67;98931.09;4994242;28;20091;-82
2022/08/15 11:40:33;;;;;;;5.32;4.50;;;;;;;32.69;32.06;98936.28;4993875;28;20045;-82
2022/08/15 11:43:00;;;;;;;5.15;4.18;;;;;;;32.97;32.14;98915.13;5012007;28;20050;-83
2022/08/15 11:45:33;;;;;;;5.45;4.00;;;;;;;33.32;31.23;98917.38;5011517;28;20041;-82
2022/08/15 11:47:59;;;;;;;5.80;4.35;;;;;;;33.67;31.08;98906.66;4994185;28;20046;-82
2022/08/15 11:50:34;;;;;;;6.57;4.03;;;;;;;33.26;31.51;98914.84;5011318;28;20452;-82
2022/08/15 11:53:03;;;;;;;6.88;3.80;;;;;;;33.04;29.84;98914.16;5011519;28;20042;-82
2022/08/15 11:55:32;;;;;;;4.22;3.80;;;;;;;32.71;29.26;98919.19;4993646;28;20149;-83
2022/08/15 11:58:01;;;;;;;4.68;4.15;;;;;;;32.70;29.38;98917.69;5013895;28;20055;-84
2022/08/15 12:00:36;;;;;;;4.40;4.00;;;;;;;33.01;31.34;98914.63;5019089;28;20051;-83
2022/08/15 12:03:25;;;;;;;5.25;4.25;;;;;;;33.31;30.92;98915.84;5018951;28;20409;-83